map of WJR home
Great Circle Mapper logo
WJR - Airport
Location
City:  Wajir, Kenya
Near (Alt.):Waghala
ICAO / IATA:HKWJ / WJR

Details
Type:Airport (Aerodrome, Airfield)
Latitude:144'00"N (1.733239)
Longitude:4005'30"E (40.091606)
Datum:WGS 1984
Elevation:770 ft (235 m)
Runways:1
Longest:9193 × 104 ft (2802 × 31.5 m), paved

Time
Time Zone:UTC+3
Local Time:

Weather
METAR:HKWJ 010000Z 15011KT SKC 26/17 Q1010

Related Locations
Nearby:
Farthest:NHV: 11944 mi / 19222 km
Nuku Hiva, Marquesas Islands, PF

Find:

   beyond  
but within

Other Information
Maps:
NOTAMs:
Links:
Sources:

  
flag of Kenya   

Sectional Chart

Flight Planning
at skyvector.com

Satellite Image

Google Maps Satellite View

 

Copyright © 2004-2014 Karl L. Swartz. All rights reserved.
The Great Circle Mapper name and logo are trademarks of the Great Circle Mapper.
All other trademarks mentioned herein belong to their respective owners.
Please see credits for attibutions and further copyright information.

  Follow gcmap on Facebook Follow gcmap on Twitter

hCard Microformat

Geo Microformat